Hickam AFB, Hawaii
Current Conditions -  °F | °C
As of 1:53 AM on Thursday 30 Oct 2014 (Local Time) from PHNL Reporting Station
Scattered Clouds Scattered Clouds  
Wind Chill: 77°   Ceiling: Unl
Heat Index: 79°   Visibility: 10mi
Dew Point: 69°   Wind: 8mph
Humidity: 76%   Direction: 50°NE
Pressure: 30.06"   Gusts: NA
Location:  21.31°N, 157.93°W
Report Text: PHNL 301153Z 05007KT 10SM FEW025 SCT049 25/21 A3006 RMK AO2 SLP178 60000 T02500206 10261 20244 58010
Loading
Personal Weather Stations






























Interactive Weather Map
Tropical Storm Tracking
New forecast layout! Learn more

10-Day Weather Forecast

Advertisements
Track Severe Weather on mobile